< < Back
Terminal Aerodrome Forecast


Current Version              Previous Versions:   1  2  3  4  5  6  7  8  9  

Terminal Aerodrome Forecast

038
FTUS42 KJAX 291728
TAFJAX
TAF
KJAX 291728Z 2918/3018 06008G12KT P6SM FEW050
     FM300100 VRB03KT P6SM SKC
     FM301400 21008KT P6SM SKC=

Latest METAR

316
SAUS80 KWBC 300400 RRA
MTRJAX
METAR KJAX 300356Z 00000KT 10SM CLR 08/04 A3033 RMK AO2 SLP271
T00780044


USA.gov is the U.S. government's official web portal to all federal, state and local government web resources and services.